Fish Lake, Indiana
Current Conditions -  °F | °C
As of 2:34 PM on Thursday 27 Nov 2014 (Local Time) from KIRS Reporting Station
Light Snow Light Snow  
Wind Chill: 18°   Ceiling: 500
Heat Index: 28°   Visibility: 0.75mi
Dew Point: 27°   Wind: 12mph
Humidity: 93%   Direction: 310°NW
Pressure: 30.2"   Gusts: 18mph
Location:  41.6561°N, 85.3683°W
Report Text: KIRS 271934Z AUTO 31010G16KT 3/4SM -SN BKN005 OVC013 M02/M03 A3020 RMK AO2
Loading
Personal Weather Stations






























Interactive Weather Map New forecast layout! Learn more

10-Day Weather Forecast

Advertisements
Track Severe Weather on mobile